createdAt,value
2019-03-28T00:00:42.748Z,24.30
2019-03-28T00:03:12.158Z,24.93
2019-03-28T00:05:41.459Z,25.80
2019-03-28T00:08:12.611Z,21.77
2019-03-28T00:10:42.136Z,25.17
2019-03-28T00:13:11.701Z,22.60
2019-03-28T00:15:40.925Z,20.53
2019-03-28T00:18:10.242Z,20.60
2019-03-28T00:20:39.845Z,15.77
2019-03-28T00:23:21.292Z,24.63
2019-03-28T00:25:50.532Z,23.33
2019-03-28T00:28:19.800Z,28.20
2019-03-28T00:30:49.022Z,22.67
2019-03-28T00:33:18.405Z,24.93
2019-03-28T00:35:48.645Z,23.87
2019-03-28T00:38:18.357Z,19.57
2019-03-28T00:40:47.970Z,24.73
2019-03-28T00:43:16.623Z,21.00
2019-03-28T00:45:45.941Z,23.97
2019-03-28T00:48:15.142Z,28.17
2019-03-28T00:50:44.515Z,22.10
2019-03-28T00:53:13.776Z,22.40
2019-03-28T00:55:43.078Z,23.80
2019-03-28T00:58:12.294Z,23.10
2019-03-28T01:00:41.977Z,24.07
2019-03-28T01:03:11.381Z,18.33
2019-03-28T01:05:40.028Z,22.97
2019-03-28T01:08:09.650Z,27.80
2019-03-28T01:10:38.948Z,20.67
2019-03-28T01:13:08.217Z,24.60
2019-03-28T01:15:37.441Z,23.20
2019-03-28T01:18:06.734Z,25.70
2019-03-28T01:20:36.025Z,21.10
2019-03-28T01:23:05.336Z,27.77
2019-03-28T01:25:34.678Z,22.70
2019-03-28T01:28:03.325Z,24.90
2019-03-28T01:30:32.599Z,22.73
2019-03-28T01:33:01.808Z,26.80
2019-03-28T01:35:31.084Z,27.00
2019-03-28T01:38:00.328Z,22.50
2019-03-28T01:40:29.639Z,28.40
2019-03-28T01:43:03.284Z,27.80
2019-03-28T01:45:33.254Z,23.70
2019-03-28T01:48:02.982Z,20.07
2019-03-28T01:50:31.995Z,29.70
2019-03-28T01:53:01.241Z,18.80
2019-03-28T01:55:30.546Z,24.43
2019-03-28T01:57:59.870Z,28.13
2019-03-28T02:00:29.125Z,25.03
2019-03-28T02:02:58.429Z,26.10
2019-03-28T02:05:27.717Z,27.10
2019-03-28T02:07:56.915Z,20.90
2019-03-28T02:10:26.249Z,27.77
2019-03-28T02:12:54.809Z,25.23
2019-03-28T02:15:24.096Z,24.00
2019-03-28T02:17:53.654Z,23.13
2019-03-28T02:20:22.928Z,23.00
2019-03-28T02:22:52.232Z,25.53
2019-03-28T02:25:21.503Z,27.07
2019-03-28T02:27:51.186Z,24.40
2019-03-28T02:30:32.600Z,21.70
2019-03-28T02:33:02.061Z,28.27
2019-03-28T02:35:30.705Z,31.13
2019-03-28T02:38:00.714Z,23.57
2019-03-28T02:40:29.954Z,23.90
2019-03-28T02:42:59.228Z,22.90
2019-03-28T02:45:29.915Z,25.07
2019-03-28T02:47:59.461Z,24.33
2019-03-28T02:50:28.740Z,27.50
2019-03-28T02:52:57.946Z,25.73
2019-03-28T02:55:27.247Z,27.07
2019-03-28T02:57:56.199Z,32.90
2019-03-28T03:00:25.449Z,24.33
2019-03-28T03:02:54.795Z,25.43
2019-03-28T03:05:24.040Z,21.80
2019-03-28T03:07:53.396Z,24.00
2019-03-28T03:10:22.669Z,21.60
2019-03-28T03:12:51.967Z,24.33
2019-03-28T03:15:21.150Z,26.10
2019-03-28T03:17:50.461Z,22.30
2019-03-28T03:20:19.650Z,22.17
2019-03-28T03:22:49.191Z,19.33
2019-03-28T03:25:18.434Z,25.00
2019-03-28T03:27:57.780Z,27.57
2019-03-28T03:30:18.739Z,31.10
2019-03-28T03:32:47.989Z,29.07
2019-03-28T03:35:17.261Z,26.70
2019-03-28T03:37:46.487Z,25.00
2019-03-28T03:40:15.778Z,26.00
2019-03-28T03:42:44.400Z,28.77
2019-03-28T03:45:13.669Z,34.00
2019-03-28T03:47:42.944Z,28.17
2019-03-28T03:50:18.888Z,32.70
2019-03-28T03:52:48.127Z,27.93
2019-03-28T03:55:17.737Z,27.70
2019-03-28T03:57:47.142Z,28.50
2019-03-28T04:00:20.122Z,26.77
2019-03-28T04:02:49.381Z,23.13
2019-03-28T04:05:18.450Z,23.27
2019-03-28T04:07:47.695Z,29.83
2019-03-28T04:10:17.261Z,21.60
2019-03-28T04:12:46.486Z,33.17
2019-03-28T04:15:15.858Z,28.53
2019-03-28T04:17:45.214Z,23.93
2019-03-28T04:20:14.418Z,33.43
2019-03-28T04:22:43.697Z,29.33
2019-03-28T04:25:13.662Z,27.07
2019-03-28T04:27:42.502Z,21.33
2019-03-28T04:30:11.725Z,30.47
2019-03-28T04:32:41.055Z,24.90
2019-03-28T04:35:10.325Z,26.93
2019-03-28T04:37:39.620Z,28.63
2019-03-28T04:40:09.398Z,37.10
2019-03-28T04:42:38.649Z,28.23
2019-03-28T04:45:07.970Z,26.10
2019-03-28T04:47:37.198Z,23.97
2019-03-28T04:50:05.837Z,33.60
2019-03-28T04:52:35.022Z,29.10
2019-03-28T04:55:04.578Z,37.90
2019-03-28T04:57:33.769Z,32.20
2019-03-28T05:00:02.992Z,22.97
2019-03-28T05:02:32.637Z,25.40
2019-03-28T05:05:01.967Z,21.60
2019-03-28T05:07:31.314Z,24.53
2019-03-28T05:09:59.876Z,25.00
2019-03-28T05:12:28.407Z,25.40
2019-03-28T05:14:57.929Z,29.20
2019-03-28T05:17:27.489Z,23.47
2019-03-28T05:19:56.788Z,27.30
2019-03-28T05:22:26.265Z,27.13
2019-03-28T05:24:55.505Z,27.53
2019-03-28T05:27:24.814Z,33.77
2019-03-28T05:29:54.101Z,29.13
2019-03-28T05:32:22.768Z,29.63
2019-03-28T05:34:52.036Z,28.50
2019-03-28T05:37:21.301Z,25.37
2019-03-28T05:39:50.605Z,31.20
2019-03-28T05:42:19.846Z,25.00
2019-03-28T05:44:49.072Z,25.13
2019-03-28T05:47:18.376Z,24.73
2019-03-28T05:49:48.134Z,23.77
2019-03-28T05:52:17.961Z,21.20
2019-03-28T05:54:46.578Z,22.87
2019-03-28T05:57:16.161Z,36.47
2019-03-28T05:59:45.506Z,26.50
2019-03-28T06:02:14.753Z,23.70
2019-03-28T06:04:43.990Z,25.70
2019-03-28T06:07:13.622Z,31.77
2019-03-28T06:09:42.905Z,27.90
2019-03-28T06:12:12.265Z,21.30
2019-03-28T06:14:41.510Z,29.23
2019-03-28T06:17:10.076Z,27.33
2019-03-28T06:19:39.392Z,31.37
2019-03-28T06:22:08.682Z,30.53
2019-03-28T06:24:37.969Z,31.03
2019-03-28T06:27:07.765Z,27.77
2019-03-28T06:29:37.030Z,22.97
2019-03-28T06:32:06.594Z,30.77
2019-03-28T06:34:36.221Z,19.97
2019-03-28T06:37:06.427Z,28.30
2019-03-28T06:39:36.602Z,24.57
2019-03-28T06:42:05.960Z,25.83
2019-03-28T06:44:35.244Z,27.67
2019-03-28T06:47:04.562Z,21.57
2019-03-28T06:49:33.847Z,25.60
2019-03-28T06:52:03.032Z,23.23
2019-03-28T06:54:32.593Z,23.07
2019-03-28T06:57:01.896Z,28.40
2019-03-28T06:59:37.317Z,19.97
2019-03-28T07:02:03.194Z,24.03
2019-03-28T07:04:32.446Z,19.53
2019-03-28T07:07:02.069Z,23.03
2019-03-28T07:09:31.295Z,18.70
2019-03-28T07:12:00.512Z,18.13
2019-03-28T07:14:29.800Z,14.57
2019-03-28T07:16:59.016Z,16.87
2019-03-28T07:19:28.201Z,17.40
2019-03-28T07:21:57.525Z,15.13
2019-03-28T07:24:26.584Z,17.13
2019-03-28T07:26:55.823Z,20.73
2019-03-28T07:29:25.524Z,13.00
2019-03-28T07:31:55.054Z,18.67
2019-03-28T07:34:24.338Z,22.23
2019-03-28T07:36:53.933Z,12.23
2019-03-28T07:39:23.796Z,16.70
2019-03-28T07:41:53.413Z,14.80
2019-03-28T07:44:22.992Z,13.17
2019-03-28T07:46:51.649Z,15.23
2019-03-28T07:49:20.937Z,13.37
2019-03-28T07:51:50.165Z,17.97
2019-03-28T07:54:19.433Z,14.13
2019-03-28T07:56:49.483Z,20.87
2019-03-28T07:59:18.853Z,15.90
2019-03-28T08:01:48.455Z,17.23
2019-03-28T08:04:17.793Z,12.03
2019-03-28T08:06:50.008Z,12.07
2019-03-28T08:09:18.168Z,12.93
2019-03-28T08:11:48.442Z,24.20
2019-03-28T08:14:17.832Z,12.50
2019-03-28T08:16:47.442Z,12.40
2019-03-28T08:19:16.783Z,14.03
2019-03-28T08:21:46.044Z,12.90
2019-03-28T08:24:15.345Z,10.20
2019-03-28T08:26:44.544Z,9.93
2019-03-28T08:29:13.112Z,8.20
2019-03-28T08:31:44.633Z,12.00
2019-03-28T08:34:14.269Z,8.20
2019-03-28T08:36:43.536Z,9.97
2019-03-28T08:39:12.746Z,17.10
2019-03-28T08:41:41.975Z,10.70
2019-03-28T08:44:11.168Z,11.00
2019-03-28T08:46:40.718Z,7.67
2019-03-28T08:49:10.012Z,10.00
2019-03-28T08:51:38.576Z,7.57
2019-03-28T08:54:07.870Z,8.00
2019-03-28T08:56:37.094Z,8.50
2019-03-28T08:59:07.003Z,9.70
2019-03-28T09:01:36.272Z,9.50
2019-03-28T09:04:05.482Z,8.87
2019-03-28T09:06:34.837Z,6.47
2019-03-28T09:09:05.438Z,7.87
2019-03-28T09:11:34.695Z,11.80
2019-03-28T09:14:03.296Z,7.80
2019-03-28T09:16:32.585Z,9.80
2019-03-28T09:19:01.853Z,12.20
2019-03-28T09:21:31.095Z,10.97
2019-03-28T09:24:00.304Z,9.03
2019-03-28T09:26:29.570Z,10.77
2019-03-28T09:28:58.777Z,8.70
2019-03-28T09:31:27.976Z,7.73
2019-03-28T09:33:56.586Z,11.43
2019-03-28T09:36:25.901Z,8.00
2019-03-28T09:38:55.128Z,8.40
2019-03-28T09:41:24.333Z,7.97
2019-03-28T09:43:55.749Z,6.10
2019-03-28T09:46:24.544Z,6.13
2019-03-28T09:48:53.838Z,7.90
2019-03-28T09:51:23.328Z,9.20
2019-03-28T09:53:52.602Z,6.30
2019-03-28T09:56:21.206Z,6.53
2019-03-28T09:58:50.409Z,5.20
2019-03-28T10:01:19.669Z,5.40
2019-03-28T10:03:48.867Z,8.13
2019-03-28T10:06:18.370Z,9.77
2019-03-28T10:08:47.600Z,5.60
2019-03-28T10:11:16.798Z,9.93
2019-03-28T10:13:45.976Z,6.90
2019-03-28T10:16:15.182Z,5.17
2019-03-28T10:18:43.740Z,7.27
2019-03-28T10:21:12.975Z,7.50
2019-03-28T10:23:42.255Z,7.13
2019-03-28T10:26:11.448Z,6.67
2019-03-28T10:28:40.668Z,7.23
2019-03-28T10:31:16.267Z,6.53
2019-03-28T10:33:41.015Z,7.23
2019-03-28T10:36:10.302Z,8.17
2019-03-28T10:38:39.689Z,3.30
2019-03-28T10:41:08.340Z,3.93
2019-03-28T10:43:37.732Z,4.80
2019-03-28T10:46:06.992Z,3.13
2019-03-28T10:48:36.205Z,4.93
2019-03-28T10:51:05.440Z,10.10
2019-03-28T10:53:34.676Z,2.43
2019-03-28T10:56:04.016Z,3.23
2019-03-28T10:58:35.042Z,3.13
2019-03-28T11:01:04.861Z,6.50
2019-03-28T11:03:33.440Z,2.90
2019-03-28T11:06:02.791Z,2.10
2019-03-28T11:08:32.337Z,3.13
2019-03-28T11:11:01.573Z,1.93
2019-03-28T11:13:30.860Z,4.60
2019-03-28T11:16:00.298Z,7.33
2019-03-28T11:18:29.695Z,4.90
2019-03-28T11:20:59.072Z,2.10
2019-03-28T11:23:27.743Z,2.30
2019-03-28T11:25:57.461Z,4.90
2019-03-28T11:28:26.858Z,2.27
2019-03-28T11:30:56.164Z,2.97
2019-03-28T11:33:25.480Z,11.00
2019-03-28T11:35:54.813Z,1.53
2019-03-28T11:38:24.081Z,1.87
2019-03-28T11:40:53.672Z,2.60
2019-03-28T11:43:22.970Z,3.73
2019-03-28T11:45:51.690Z,5.20
2019-03-28T11:48:21.080Z,1.60
2019-03-28T11:50:50.363Z,2.67
2019-03-28T11:53:19.605Z,2.00
2019-03-28T11:55:49.086Z,2.20
2019-03-28T11:58:18.399Z,2.60
2019-03-28T12:00:47.797Z,1.93
2019-03-28T12:03:17.074Z,2.20
2019-03-28T12:05:46.377Z,1.63
2019-03-28T12:08:15.057Z,6.13
2019-03-28T12:10:44.386Z,3.07
2019-03-28T12:13:13.909Z,2.50
2019-03-28T12:15:43.137Z,3.33
2019-03-28T12:18:12.596Z,2.53
2019-03-28T12:20:41.825Z,2.47
2019-03-28T12:23:11.341Z,2.40
2019-03-28T12:25:40.562Z,7.67
2019-03-28T12:28:09.801Z,13.00
2019-03-28T12:30:38.369Z,3.43
2019-03-28T12:33:07.600Z,3.53
2019-03-28T12:35:36.857Z,3.00
2019-03-28T12:38:06.155Z,1.70
2019-03-28T12:40:35.457Z,1.83
2019-03-28T12:43:04.762Z,2.53
2019-03-28T12:45:34.101Z,2.23
2019-03-28T12:48:03.371Z,2.17
2019-03-28T12:50:32.631Z,1.80
2019-03-28T12:53:01.237Z,3.50
2019-03-28T12:55:30.556Z,1.93
2019-03-28T12:57:59.881Z,4.27
2019-03-28T13:00:36.387Z,1.30
2019-03-28T13:03:05.706Z,1.50
2019-03-28T13:05:35.189Z,1.20
2019-03-28T13:08:04.728Z,3.03
2019-03-28T13:10:34.602Z,1.73
2019-03-28T13:13:04.118Z,3.10
2019-03-28T13:15:32.857Z,1.90
2019-03-28T13:18:02.223Z,1.27
2019-03-28T13:20:31.520Z,6.60
2019-03-28T13:23:00.844Z,1.30
2019-03-28T13:25:30.114Z,5.10
2019-03-28T13:27:59.450Z,6.80
2019-03-28T13:30:28.727Z,1.80
2019-03-28T13:32:58.013Z,2.90
2019-03-28T13:35:26.598Z,1.13
2019-03-28T13:37:55.838Z,3.37
2019-03-28T13:40:26.194Z,1.43
2019-03-28T13:42:55.549Z,3.10
2019-03-28T13:45:24.830Z,1.43
2019-03-28T13:47:54.557Z,2.73
2019-03-28T13:50:23.839Z,4.87
2019-03-28T13:52:53.092Z,2.03
2019-03-28T13:55:22.334Z,1.87
2019-03-28T13:57:52.342Z,1.50
2019-03-28T14:00:30.119Z,1.40
2019-03-28T14:02:59.476Z,1.53
2019-03-28T14:05:28.777Z,1.17
2019-03-28T14:07:58.052Z,2.73
2019-03-28T14:10:27.308Z,1.47
2019-03-28T14:12:56.540Z,2.10
2019-03-28T14:15:25.882Z,2.00
2019-03-28T14:17:55.161Z,3.50
2019-03-28T14:20:24.454Z,2.53
2019-03-28T14:22:53.148Z,2.47
2019-03-28T14:25:22.880Z,5.80
2019-03-28T14:27:52.189Z,3.50
2019-03-28T14:30:21.461Z,5.53
2019-03-28T14:32:53.514Z,3.03
2019-03-28T14:35:21.825Z,6.10
2019-03-28T14:37:51.084Z,2.20
2019-03-28T14:40:20.525Z,4.40
2019-03-28T14:42:49.183Z,5.40
2019-03-28T14:45:18.492Z,5.63
2019-03-28T14:47:47.951Z,4.23
2019-03-28T14:50:22.188Z,2.83
2019-03-28T14:52:51.438Z,2.30
2019-03-28T14:55:21.343Z,3.00
2019-03-28T14:57:50.637Z,2.80
2019-03-28T15:00:50.938Z,3.40
2019-03-28T15:03:26.111Z,2.73
2019-03-28T15:05:51.689Z,2.67
2019-03-28T15:08:21.079Z,2.20
2019-03-28T15:10:49.772Z,4.30
2019-03-28T15:13:19.077Z,4.33
2019-03-28T15:15:48.338Z,3.90
2019-03-28T15:18:17.637Z,6.70
2019-03-28T15:20:46.888Z,4.03
2019-03-28T15:23:16.232Z,4.20
2019-03-28T15:25:45.474Z,6.43
2019-03-28T15:28:14.769Z,3.90
2019-03-28T15:30:44.406Z,3.90
2019-03-28T15:33:13.009Z,3.97
2019-03-28T15:35:43.079Z,9.77
2019-03-28T15:38:12.405Z,4.83
2019-03-28T15:40:41.657Z,3.50
2019-03-28T15:43:10.989Z,3.37
2019-03-28T15:45:40.203Z,4.63
2019-03-28T15:48:10.004Z,3.87
2019-03-28T15:50:40.028Z,7.53
2019-03-28T15:53:09.259Z,4.07
2019-03-28T15:55:38.508Z,3.97
2019-03-28T15:58:07.827Z,7.33
2019-03-28T16:00:37.075Z,4.67
2019-03-28T16:03:06.648Z,4.40
2019-03-28T16:05:35.957Z,6.70
2019-03-28T16:08:05.507Z,11.77
2019-03-28T16:10:35.076Z,8.27
2019-03-28T16:13:04.649Z,5.83
2019-03-28T16:15:33.241Z,4.97
2019-03-28T16:18:02.461Z,5.13
2019-03-28T16:20:31.714Z,7.37
2019-03-28T16:23:00.943Z,8.10
2019-03-28T16:25:30.549Z,6.27
2019-03-28T16:27:59.813Z,8.70
2019-03-28T16:30:39.152Z,6.70
2019-03-28T16:33:08.690Z,5.33
2019-03-28T16:35:37.977Z,7.50
2019-03-28T16:38:06.931Z,5.37
2019-03-28T16:40:36.433Z,6.13
2019-03-28T16:43:05.749Z,7.90
2019-03-28T16:45:34.984Z,5.43
2019-03-28T16:48:04.217Z,7.83
2019-03-28T16:50:34.184Z,6.10
2019-03-28T16:53:03.686Z,13.87
2019-03-28T16:55:32.909Z,15.83
2019-03-28T16:58:02.193Z,8.10
2019-03-28T17:00:37.281Z,8.37
2019-03-28T17:03:05.978Z,10.30
2019-03-28T17:05:35.225Z,8.23
2019-03-28T17:08:04.637Z,9.97
2019-03-28T17:10:53.377Z,9.97
2019-03-28T17:13:22.678Z,10.23
2019-03-28T17:15:51.928Z,14.60
2019-03-28T17:18:21.257Z,13.90
2019-03-28T17:20:50.572Z,10.93
2019-03-28T17:23:20.014Z,13.17
2019-03-28T17:25:48.648Z,14.00
2019-03-28T17:28:17.968Z,12.30
2019-03-28T17:30:47.249Z,15.60
2019-03-28T17:33:17.985Z,16.23
2019-03-28T17:35:47.455Z,19.23
2019-03-28T17:38:16.741Z,15.67
2019-03-28T17:40:46.094Z,17.90
2019-03-28T17:43:15.893Z,12.17
2019-03-28T17:45:45.394Z,15.93
2019-03-28T17:48:14.178Z,16.70
2019-03-28T17:50:43.988Z,18.97
2019-03-28T17:53:13.646Z,17.73
2019-03-28T17:55:43.010Z,13.60
2019-03-28T17:58:12.333Z,15.77
2019-03-28T18:00:43.198Z,14.83
2019-03-28T18:03:12.463Z,16.37
2019-03-28T18:05:42.529Z,56.03
2019-03-28T18:08:11.895Z,33.00
2019-03-28T18:10:40.547Z,17.93
2019-03-28T18:13:09.795Z,20.60
2019-03-28T18:15:39.029Z,22.10
2019-03-28T18:18:11.607Z,15.73
2019-03-28T18:20:39.712Z,19.03
2019-03-28T18:23:09.021Z,18.17
2019-03-28T18:25:38.624Z,19.30
2019-03-28T18:28:08.254Z,18.97
2019-03-28T18:30:37.608Z,16.23
2019-03-28T18:33:06.279Z,22.63
2019-03-28T18:35:35.612Z,19.23
2019-03-28T18:38:04.867Z,21.60
2019-03-28T18:40:34.106Z,17.63
2019-03-28T18:43:03.748Z,26.13
2019-03-28T18:45:33.890Z,21.97
2019-03-28T18:48:03.373Z,16.67
2019-03-28T18:50:32.609Z,18.90
2019-03-28T18:53:01.849Z,16.50
2019-03-28T18:55:30.482Z,20.27
2019-03-28T18:57:59.741Z,15.33
2019-03-28T19:00:29.084Z,18.30
2019-03-28T19:02:58.403Z,21.73
2019-03-28T19:05:27.651Z,21.80
2019-03-28T19:07:56.895Z,17.10
2019-03-28T19:10:26.188Z,21.97
2019-03-28T19:12:55.523Z,17.00
2019-03-28T19:15:24.872Z,17.07
2019-03-28T19:17:53.539Z,20.43
2019-03-28T19:20:22.791Z,17.80
2019-03-28T19:22:52.113Z,21.30
2019-03-28T19:25:21.426Z,24.37
2019-03-28T19:27:50.690Z,17.83
2019-03-28T19:30:32.455Z,28.67
2019-03-28T19:33:02.018Z,20.43
2019-03-28T19:35:33.287Z,17.27
2019-03-28T19:38:02.334Z,21.83
2019-03-28T19:40:31.029Z,25.93
2019-03-28T19:43:00.332Z,22.80
2019-03-28T19:45:36.724Z,18.07
2019-03-28T19:48:06.975Z,19.20
2019-03-28T19:50:36.300Z,21.80
2019-03-28T19:53:05.900Z,23.50
2019-03-28T19:55:35.131Z,31.13
2019-03-28T19:58:04.979Z,21.93
2019-03-28T20:00:34.912Z,28.10
2019-03-28T20:03:03.601Z,18.90
2019-03-28T20:05:46.422Z,24.90
2019-03-28T20:08:14.893Z,23.20
2019-03-28T20:10:35.565Z,19.17
2019-03-28T20:13:05.514Z,23.67
2019-03-28T20:15:35.223Z,19.40
2019-03-28T20:18:04.820Z,25.13
2019-03-28T20:20:34.268Z,22.97
2019-03-28T20:23:03.939Z,32.83
2019-03-28T20:25:33.089Z,21.07
2019-03-28T20:28:02.560Z,26.17
2019-03-28T20:30:31.946Z,28.93
2019-03-28T20:33:02.112Z,22.47
2019-03-28T20:35:31.899Z,18.70
2019-03-28T20:38:01.262Z,20.90
2019-03-28T20:40:30.749Z,19.67
2019-03-28T20:43:00.791Z,25.27
2019-03-28T20:45:30.445Z,19.30
2019-03-28T20:47:59.226Z,22.30
2019-03-28T20:50:31.590Z,21.70
2019-03-28T20:52:59.815Z,20.87
2019-03-28T20:55:29.298Z,23.20
2019-03-28T20:57:58.911Z,20.53
2019-03-28T21:00:42.521Z,19.43
2019-03-28T21:03:12.128Z,16.93
2019-03-28T21:05:41.372Z,22.47
2019-03-28T21:08:10.630Z,20.30
2019-03-28T21:10:39.861Z,21.47
2019-03-28T21:13:09.744Z,26.53
2019-03-28T21:15:39.325Z,18.33
2019-03-28T21:18:08.622Z,23.70
2019-03-28T21:20:38.124Z,18.30
2019-03-28T21:23:07.305Z,21.00
2019-03-28T21:25:36.803Z,20.13
2019-03-28T21:28:06.325Z,22.63
2019-03-28T21:30:46.502Z,17.47
2019-03-28T21:33:06.048Z,37.70
2019-03-28T21:35:35.343Z,23.10
2019-03-28T21:38:04.620Z,15.63
2019-03-28T21:40:33.967Z,15.53
2019-03-28T21:43:03.255Z,23.80
2019-03-28T21:45:32.872Z,19.63
2019-03-28T21:48:02.132Z,16.90
2019-03-28T21:50:31.469Z,19.67
2019-03-28T21:53:00.785Z,20.93
2019-03-28T21:55:29.718Z,20.90
2019-03-28T21:57:58.976Z,31.83
2019-03-28T22:00:28.258Z,16.63
2019-03-28T22:02:58.232Z,17.97
2019-03-28T22:05:28.928Z,21.77
2019-03-28T22:07:58.340Z,18.77
2019-03-28T22:10:27.806Z,17.30
2019-03-28T22:12:57.167Z,20.00
2019-03-28T22:15:26.373Z,24.43
2019-03-28T22:17:55.725Z,17.40
2019-03-28T22:20:24.967Z,21.90
2019-03-28T22:22:55.002Z,18.47
2019-03-28T22:25:24.438Z,20.50
2019-03-28T22:27:53.698Z,19.33
2019-03-28T22:30:23.299Z,18.97
2019-03-28T22:32:52.797Z,36.27
2019-03-28T22:35:22.038Z,22.97
2019-03-28T22:37:51.301Z,27.23
2019-03-28T22:40:19.897Z,18.30
2019-03-28T22:42:49.214Z,16.40
2019-03-28T22:45:18.588Z,27.03
2019-03-28T22:47:47.788Z,27.00
2019-03-28T22:50:17.087Z,30.10
2019-03-28T22:52:46.321Z,21.70
2019-03-28T22:55:15.682Z,18.97
2019-03-28T22:57:44.927Z,22.33
2019-03-28T23:00:14.399Z,18.00
2019-03-28T23:02:43.148Z,18.60
2019-03-28T23:05:12.450Z,19.20
2019-03-28T23:07:41.722Z,22.13
2019-03-28T23:10:11.244Z,20.90
2019-03-28T23:12:40.532Z,18.93
2019-03-28T23:15:10.874Z,32.47
2019-03-28T23:17:40.349Z,17.60
2019-03-28T23:20:10.386Z,25.77
2019-03-28T23:22:39.027Z,20.57
2019-03-28T23:25:10.854Z,24.60
2019-03-28T23:27:40.318Z,22.63
2019-03-28T23:30:10.114Z,20.23
2019-03-28T23:32:39.467Z,21.80
2019-03-28T23:35:09.085Z,24.80
2019-03-28T23:37:38.318Z,21.80
2019-03-28T23:40:07.631Z,22.30
2019-03-28T23:42:36.984Z,31.03
2019-03-28T23:45:06.190Z,21.33
2019-03-28T23:47:35.647Z,24.47
2019-03-28T23:50:05.018Z,22.93
2019-03-28T23:52:34.918Z,21.27
2019-03-28T23:55:04.979Z,25.83
2019-03-28T23:57:34.271Z,28.87
